createdAt,value
2019-05-05T00:02:14.764Z,7.30
2019-05-05T00:04:57.167Z,10.10
2019-05-05T00:07:30.767Z,10.13
2019-05-05T00:10:04.581Z,7.90
2019-05-05T00:13:04.533Z,9.70
2019-05-05T00:16:04.694Z,8.60
2019-05-05T00:18:36.411Z,7.60
2019-05-05T00:21:07.669Z,6.80
2019-05-05T00:23:38.032Z,7.40
2019-05-05T00:26:09.463Z,7.30
2019-05-05T00:28:39.622Z,6.43
2019-05-05T00:31:09.530Z,6.63
2019-05-05T00:37:07.805Z,7.37
2019-05-05T00:39:38.376Z,7.90
2019-05-05T00:42:08.264Z,8.37
2019-05-05T00:44:38.149Z,7.47
2019-05-05T00:47:26.602Z,7.63
2019-05-05T00:49:57.068Z,7.13
2019-05-05T00:52:28.284Z,9.35
2019-05-05T00:54:58.178Z,8.47
2019-05-05T00:57:28.574Z,7.73
2019-05-05T00:59:58.894Z,8.10
2019-05-05T01:02:47.777Z,8.23
2019-05-05T01:05:34.385Z,10.80
2019-05-05T01:08:07.720Z,12.73
2019-05-05T01:10:38.138Z,12.63
2019-05-05T01:13:08.215Z,8.60
2019-05-05T01:15:39.402Z,8.47
2019-05-05T01:18:09.260Z,7.37
2019-05-05T01:20:39.263Z,7.00
2019-05-05T01:23:09.634Z,6.80
2019-05-05T01:25:41.384Z,7.77
2019-05-05T01:28:14.231Z,7.53
2019-05-05T01:30:45.887Z,6.93
2019-05-05T01:33:44.870Z,7.30
2019-05-05T01:36:15.839Z,7.70
2019-05-05T01:38:52.073Z,7.60
2019-05-05T01:41:37.678Z,7.80
2019-05-05T01:44:08.788Z,7.47
2019-05-05T01:46:39.247Z,8.03
2019-05-05T01:49:09.153Z,7.60
2019-05-05T01:51:39.256Z,7.37
2019-05-05T01:54:11.179Z,7.70
2019-05-05T01:56:41.209Z,8.10
2019-05-05T01:59:11.868Z,7.53
2019-05-05T02:01:44.586Z,8.20
2019-05-05T02:04:15.227Z,8.10
2019-05-05T02:06:45.143Z,8.83
2019-05-05T02:09:16.030Z,8.13
2019-05-05T02:11:46.738Z,8.07
2019-05-05T02:14:17.852Z,8.20
2019-05-05T02:16:49.281Z,8.63
2019-05-05T02:19:19.712Z,8.17
2019-05-05T02:21:51.043Z,8.10
2019-05-05T02:24:25.047Z,8.60
2019-05-05T02:26:55.397Z,8.27
2019-05-05T02:29:41.847Z,8.43
2019-05-05T02:32:29.619Z,8.93
2019-05-05T02:35:01.668Z,8.47
2019-05-05T02:37:31.721Z,8.53
2019-05-05T02:40:06.558Z,8.10
2019-05-05T02:42:35.458Z,9.00
2019-05-05T02:45:06.948Z,8.40
2019-05-05T02:47:55.492Z,9.13
2019-05-05T02:50:26.649Z,9.07
2019-05-05T02:52:57.067Z,9.10
2019-05-05T02:55:32.099Z,9.37
2019-05-05T02:58:03.805Z,8.63
2019-05-05T03:00:54.202Z,8.40
2019-05-05T03:03:24.331Z,8.43
2019-05-05T03:05:54.818Z,9.90
2019-05-05T03:08:24.827Z,9.20
2019-05-05T03:10:54.747Z,9.13
2019-05-05T03:13:24.839Z,8.97
2019-05-05T03:16:08.063Z,9.47
2019-05-05T03:18:38.576Z,10.10
2019-05-05T03:21:10.631Z,9.00
2019-05-05T03:23:44.995Z,9.03
2019-05-05T03:26:15.304Z,12.98
2019-05-05T03:28:50.197Z,10.73
2019-05-05T03:31:20.211Z,9.50
2019-05-05T03:33:50.352Z,9.10
2019-05-05T03:36:20.535Z,9.10
2019-05-05T03:38:54.019Z,9.17
2019-05-05T03:41:30.497Z,8.80
2019-05-05T03:44:26.515Z,8.90
2019-05-05T03:46:56.653Z,10.10
2019-05-05T03:49:26.963Z,9.70
2019-05-05T03:51:57.277Z,9.77
2019-05-05T03:54:27.619Z,9.87
2019-05-05T03:57:09.875Z,11.30
2019-05-05T03:59:44.050Z,9.73
2019-05-05T04:02:33.931Z,9.77
2019-05-05T04:05:14.582Z,10.10
2019-05-05T04:07:45.296Z,8.90
2019-05-05T04:10:18.945Z,9.70
2019-05-05T04:12:50.150Z,9.43
2019-05-05T04:15:20.781Z,9.63
2019-05-05T04:18:06.683Z,10.27
2019-05-05T04:20:44.553Z,9.80
2019-05-05T04:23:16.213Z,10.07
2019-05-05T04:25:46.701Z,9.13
2019-05-05T04:28:17.327Z,9.43
2019-05-05T04:30:47.922Z,9.23
2019-05-05T04:33:20.451Z,8.80
2019-05-05T04:35:54.520Z,13.28
2019-05-05T04:38:25.470Z,11.77
2019-05-05T04:40:57.183Z,10.23
2019-05-05T04:43:27.858Z,9.97
2019-05-05T04:46:01.068Z,10.13
2019-05-05T04:48:39.613Z,9.73
2019-05-05T04:51:20.983Z,10.30
2019-05-05T04:54:10.612Z,9.10
2019-05-05T04:56:41.179Z,9.07
2019-05-05T04:59:14.391Z,9.10
2019-05-05T05:01:45.909Z,9.23
2019-05-05T05:04:46.637Z,9.37
2019-05-05T05:07:18.690Z,9.63
2019-05-05T05:09:50.170Z,8.57
2019-05-05T05:12:23.568Z,8.17
2019-05-05T05:14:54.748Z,8.70
2019-05-05T05:17:33.803Z,10.60
2019-05-05T05:20:05.924Z,10.20
2019-05-05T05:22:37.533Z,8.60
2019-05-05T05:25:08.918Z,9.20
2019-05-05T05:27:40.262Z,8.40
2019-05-05T05:30:13.553Z,8.77
2019-05-05T05:32:46.588Z,9.00
2019-05-05T05:35:18.568Z,8.57
2019-05-05T05:37:49.950Z,8.47
2019-05-05T05:40:29.076Z,8.27
2019-05-05T05:43:01.781Z,9.23
2019-05-05T05:45:57.990Z,9.23
2019-05-05T05:48:34.743Z,8.63
2019-05-05T05:51:08.487Z,9.30
2019-05-05T05:53:39.805Z,13.77
2019-05-05T05:56:13.408Z,11.57
2019-05-05T05:58:46.182Z,10.13
2019-05-05T06:01:23.854Z,9.17
2019-05-05T06:03:59.739Z,10.20
2019-05-05T06:06:38.708Z,9.80
2019-05-05T06:09:14.681Z,8.57
2019-05-05T06:11:47.456Z,9.50
2019-05-05T06:14:20.231Z,9.40
2019-05-05T06:16:54.024Z,10.13
2019-05-05T06:19:27.897Z,9.13
2019-05-05T06:22:00.200Z,10.43
2019-05-05T06:24:31.989Z,9.03
2019-05-05T06:27:03.877Z,9.47
2019-05-05T06:29:36.673Z,9.20
2019-05-05T06:32:08.347Z,10.13
2019-05-05T06:34:44.314Z,9.50
2019-05-05T06:37:16.254Z,9.90
2019-05-05T06:39:48.510Z,10.03
2019-05-05T06:42:38.650Z,10.60
2019-05-05T06:45:16.707Z,9.70
2019-05-05T06:47:48.010Z,10.03
2019-05-05T06:50:19.638Z,10.63
2019-05-05T06:52:54.336Z,9.83
2019-05-05T06:55:26.897Z,10.00
2019-05-05T06:57:59.864Z,10.30
2019-05-05T07:00:30.325Z,10.30
2019-05-05T07:03:01.158Z,10.13
2019-05-05T07:05:36.415Z,7.80
2019-05-05T07:08:07.140Z,7.97
2019-05-05T07:10:40.854Z,8.30
2019-05-05T07:13:13.851Z,7.57
2019-05-05T07:15:44.336Z,7.83
2019-05-05T07:18:14.986Z,6.90
2019-05-05T07:20:46.889Z,7.30
2019-05-05T07:30:25.469Z,6.63
2019-05-05T07:32:58.510Z,6.43
2019-05-05T07:35:37.855Z,6.40
2019-05-05T07:38:09.797Z,6.40
2019-05-05T07:40:40.342Z,6.27
2019-05-05T07:43:11.120Z,5.47
2019-05-05T07:45:42.128Z,5.30
2019-05-05T07:48:14.901Z,5.80
2019-05-05T07:50:58.207Z,5.80
2019-05-05T07:53:18.437Z,4.93
2019-05-05T07:55:51.652Z,4.57
2019-05-05T08:02:14.417Z,5.27
2019-05-05T08:04:45.308Z,5.60
2019-05-05T08:07:23.980Z,4.73
2019-05-05T08:09:54.357Z,8.33
2019-05-05T08:12:26.522Z,6.40
2019-05-05T08:14:58.303Z,5.17
2019-05-05T08:17:47.866Z,4.23
2019-05-05T08:24:10.237Z,4.63
2019-05-05T08:26:48.610Z,4.57
2019-05-05T08:35:23.808Z,4.40
2019-05-05T08:37:56.580Z,3.33
2019-05-05T08:40:26.535Z,3.77
2019-05-05T08:42:58.126Z,4.80
2019-05-05T08:45:28.313Z,3.60
2019-05-05T08:53:54.598Z,3.50
2019-05-05T08:56:26.284Z,3.70
2019-05-05T08:58:56.715Z,3.23
2019-05-05T09:01:27.765Z,3.30
2019-05-05T09:03:58.731Z,3.30
2019-05-05T09:06:29.551Z,2.80
2019-05-05T09:08:59.890Z,3.30
2019-05-05T09:11:30.654Z,3.00
2019-05-05T09:19:55.237Z,2.93
2019-05-05T09:22:25.910Z,3.10
2019-05-05T09:25:13.671Z,3.20
2019-05-05T09:31:31.421Z,3.37
2019-05-05T09:34:01.723Z,3.00
2019-05-05T09:36:31.974Z,2.87
2019-05-05T09:39:04.259Z,2.80
2019-05-05T09:41:36.320Z,3.40
2019-05-05T09:51:20.890Z,2.80
2019-05-05T09:53:51.464Z,2.83
2019-05-05T09:56:23.634Z,2.90
2019-05-05T10:03:10.109Z,2.70
2019-05-05T10:05:40.317Z,2.80
2019-05-05T10:11:44.990Z,2.50
2019-05-05T10:14:14.882Z,2.57
2019-05-05T10:22:43.699Z,2.97
2019-05-05T10:25:30.733Z,2.30
2019-05-05T10:34:01.166Z,2.47
2019-05-05T10:36:33.714Z,2.33
2019-05-05T10:39:10.474Z,2.60
2019-05-05T10:41:44.044Z,2.27
2019-05-05T10:44:15.360Z,2.50
2019-05-05T10:49:58.695Z,2.20
2019-05-05T10:52:28.957Z,2.77
2019-05-05T10:55:00.984Z,2.23
2019-05-05T11:01:00.958Z,2.67
2019-05-05T11:03:34.973Z,1.97
2019-05-05T11:06:05.193Z,2.97
2019-05-05T11:08:36.869Z,3.03
2019-05-05T11:18:20.264Z,2.20
2019-05-05T11:20:54.829Z,2.93
2019-05-05T11:27:15.331Z,2.83
2019-05-05T11:36:25.683Z,2.40
2019-05-05T11:45:49.585Z,2.17
2019-05-05T11:48:24.054Z,2.07
2019-05-05T11:57:43.678Z,2.27
2019-05-05T12:06:11.432Z,2.40
2019-05-05T12:08:47.525Z,2.37
2019-05-05T12:23:59.168Z,2.50
2019-05-05T12:32:51.559Z,2.77
2019-05-05T12:35:23.554Z,2.60
2019-05-05T12:37:58.220Z,2.53
2019-05-05T12:40:40.188Z,2.27
2019-05-05T12:46:51.048Z,2.17
2019-05-05T12:49:24.777Z,2.07
2019-05-05T12:51:54.969Z,2.60
2019-05-05T12:54:29.517Z,2.40
2019-05-05T13:02:50.368Z,2.17
2019-05-05T13:11:16.393Z,2.50
2019-05-05T13:13:47.667Z,2.23
2019-05-05T13:23:15.183Z,2.57
2019-05-05T13:26:07.488Z,2.40
2019-05-05T13:35:03.499Z,2.23
2019-05-05T13:37:33.998Z,2.40
2019-05-05T13:46:17.811Z,2.03
2019-05-05T13:48:48.551Z,2.17
2019-05-05T13:51:25.445Z,1.90
2019-05-05T13:53:56.497Z,2.20
2019-05-05T14:02:49.084Z,1.90
2019-05-05T14:05:23.913Z,2.33
2019-05-05T14:07:54.948Z,2.30
2019-05-05T14:13:51.398Z,2.40
2019-05-05T14:16:21.398Z,2.57
2019-05-05T14:18:55.659Z,2.27
2019-05-05T14:21:27.579Z,2.07
2019-05-05T14:27:18.599Z,2.00
2019-05-05T14:37:07.007Z,1.90
2019-05-05T14:46:06.864Z,2.40
2019-05-05T14:48:39.750Z,2.10
2019-05-05T14:55:07.771Z,1.83
2019-05-05T14:57:38.369Z,2.20
2019-05-05T15:00:10.545Z,2.20
2019-05-05T15:02:43.867Z,1.83
2019-05-05T15:08:59.897Z,1.80
2019-05-05T15:12:00.012Z,1.80
2019-05-05T15:20:28.935Z,1.50
2019-05-05T15:23:13.443Z,1.80
2019-05-05T15:25:44.712Z,1.77
2019-05-05T15:31:40.849Z,2.37
2019-05-05T15:34:17.908Z,1.90
2019-05-05T15:40:05.557Z,1.90
2019-05-05T15:42:41.124Z,1.80
2019-05-05T15:48:26.438Z,1.70
2019-05-05T15:50:57.587Z,2.27
2019-05-05T15:59:23.893Z,1.50
2019-05-05T16:02:03.930Z,1.80
2019-05-05T16:08:01.461Z,1.90
2019-05-05T16:10:38.179Z,1.30
2019-05-05T16:16:34.856Z,1.47
2019-05-05T16:19:27.695Z,1.93
2019-05-05T16:25:14.015Z,1.70
2019-05-05T16:33:52.524Z,1.90
2019-05-05T16:36:24.297Z,2.10
2019-05-05T16:45:07.790Z,2.93
2019-05-05T16:53:45.599Z,1.83
2019-05-05T17:08:44.814Z,2.80
2019-05-05T17:11:17.872Z,2.03
2019-05-05T17:13:59.856Z,1.90
2019-05-05T17:16:54.489Z,2.33
2019-05-05T17:22:34.049Z,2.50
2019-05-05T17:25:09.898Z,2.50
2019-05-05T17:34:17.149Z,1.80
2019-05-05T17:36:49.621Z,1.90
2019-05-05T17:43:33.934Z,2.93
2019-05-05T17:46:07.513Z,2.40
2019-05-05T17:52:27.579Z,2.27
2019-05-05T17:58:59.772Z,2.87
2019-05-05T18:01:29.851Z,2.33
2019-05-05T18:10:27.321Z,2.17
2019-05-05T18:16:04.545Z,2.37
2019-05-05T18:18:35.093Z,2.40
2019-05-05T18:21:05.103Z,2.53
2019-05-05T18:23:54.576Z,2.10
2019-05-05T18:29:14.576Z,2.00
2019-05-05T18:31:45.948Z,1.70
2019-05-05T18:40:11.176Z,2.43
2019-05-05T18:42:42.271Z,2.33
2019-05-05T18:48:26.457Z,2.87
2019-05-05T18:50:56.647Z,2.73
2019-05-05T18:59:24.029Z,2.57
2019-05-05T19:02:15.767Z,3.10
2019-05-05T19:04:55.424Z,2.33
2019-05-05T19:11:10.151Z,2.23
2019-05-05T19:13:40.376Z,2.03
2019-05-05T19:22:21.052Z,2.40
2019-05-05T19:24:51.999Z,2.50
2019-05-05T19:32:59.015Z,3.27
2019-05-05T19:41:06.683Z,3.10
2019-05-05T19:43:55.038Z,2.73
2019-05-05T19:52:47.200Z,2.23
2019-05-05T19:55:18.352Z,2.40
2019-05-05T19:57:53.899Z,3.00
2019-05-05T20:06:40.277Z,2.50
2019-05-05T20:15:51.325Z,3.03
2019-05-05T20:18:24.910Z,2.87
2019-05-05T20:21:03.766Z,3.20
2019-05-05T20:30:01.372Z,2.57
2019-05-05T20:36:28.559Z,2.80
2019-05-05T20:38:58.987Z,2.03
2019-05-05T20:41:54.684Z,2.70
2019-05-05T20:44:45.639Z,2.40
2019-05-05T20:47:17.681Z,2.20
2019-05-05T20:49:48.555Z,2.47
2019-05-05T20:52:19.767Z,2.80
2019-05-05T20:54:50.610Z,2.80
2019-05-05T20:57:23.036Z,3.10
2019-05-05T21:05:34.483Z,2.70
2019-05-05T21:08:07.312Z,2.37
2019-05-05T21:10:41.594Z,3.03
2019-05-05T21:13:16.307Z,3.07
2019-05-05T21:15:47.937Z,3.60
2019-05-05T21:21:19.022Z,4.08
2019-05-05T21:23:56.344Z,4.27
2019-05-05T21:32:21.769Z,4.20
2019-05-05T21:34:53.196Z,4.73
2019-05-05T21:43:26.744Z,3.40
2019-05-05T21:45:57.839Z,3.50
2019-05-05T21:48:29.702Z,3.53
2019-05-05T21:51:15.145Z,3.23
2019-05-05T21:54:15.423Z,3.30
2019-05-05T21:57:09.672Z,2.43
2019-05-05T21:59:54.407Z,2.50
2019-05-05T22:02:15.451Z,2.80
2019-05-05T22:04:47.427Z,2.47
2019-05-05T22:07:18.619Z,2.80
2019-05-05T22:16:21.846Z,3.30
2019-05-05T22:18:56.211Z,3.27
2019-05-05T22:28:08.217Z,2.80
2019-05-05T22:30:39.339Z,2.50
2019-05-05T22:33:11.226Z,2.93
2019-05-05T22:42:09.228Z,3.20
2019-05-05T22:44:40.971Z,2.47
2019-05-05T22:47:13.925Z,2.50
2019-05-05T22:53:09.565Z,3.13
2019-05-05T22:55:40.700Z,2.50
2019-05-05T22:58:14.207Z,2.83
2019-05-05T23:00:45.347Z,2.70
2019-05-05T23:03:29.954Z,2.70
2019-05-05T23:06:14.051Z,2.50
2019-05-05T23:08:45.953Z,3.17
2019-05-05T23:17:34.147Z,3.20
2019-05-05T23:20:16.299Z,3.20
2019-05-05T23:22:56.492Z,3.50
2019-05-05T23:25:32.690Z,3.53
2019-05-05T23:28:04.530Z,3.43
2019-05-05T23:30:41.450Z,3.20
2019-05-05T23:33:09.277Z,3.60
2019-05-05T23:35:40.329Z,3.60
2019-05-05T23:38:11.873Z,3.87
2019-05-05T23:40:43.161Z,3.53
2019-05-05T23:43:14.325Z,3.90
2019-05-05T23:45:44.991Z,3.23
2019-05-05T23:48:17.250Z,3.47
2019-05-05T23:50:48.096Z,3.20
2019-05-05T23:53:21.919Z,3.67
2019-05-05T23:55:54.581Z,3.30
2019-05-05T23:58:25.751Z,3.53
